Time;durP1;ratioP1;P1;durP2;ratioP2;P2;SDS_P1;SDS_P2;PMS_P1;PMS_P2;Temp;Humidity;BMP_temperature;BMP_pressure;BME280_temperature;BME280_humidity;BME280_pressure;Samples;Min_cycle;Max_cycle;Signal;HPM_P1;HPM_P2
2021/09/15 00:00:44;;;;;;;1.60;1.10;;;;;;;;;;5067252;28;20062;-73
2021/09/15 00:03:09;;;;;;;2.53;1.42;;;;;;;;;;5073742;28;20044;-73
2021/09/15 00:05:35;;;;;;;2.53;1.42;;;;;;;;;;5055753;28;20017;-73
2021/09/15 00:08:00;;;;;;;1.70;1.10;;;;;;;;;;5058487;28;20356;-73
2021/09/15 00:10:25;;;;;;;3.90;1.55;;;;;;;;;;5074906;28;20032;-73
2021/09/15 00:12:51;;;;;;;2.47;1.50;;;;;;;;;;5072135;28;20094;-73
2021/09/15 00:15:16;;;;;;;2.67;1.80;;;;;;;;;;5067254;28;20027;-73
2021/09/15 00:17:42;;;;;;;3.33;1.60;;;;;;;;;;5076376;28;20020;-73
2021/09/15 00:20:09;;;;;;;2.50;1.77;;;;;;;;;;5070046;28;20028;-73
2021/09/15 00:22:35;;;;;;;3.30;2.13;;;;;;;;;;5059562;28;20396;-73
2021/09/15 00:25:00;;;;;;;4.15;1.80;;;;;;;;;;5058314;28;20040;-73
2021/09/15 00:27:26;;;;;;;3.08;1.88;;;;;;;;;;5064626;28;20061;-73
2021/09/15 00:29:52;;;;;;;2.72;1.90;;;;;;;;;;5053067;28;20021;-73
2021/09/15 00:32:17;;;;;;;2.50;1.73;;;;;;;;;;5085159;28;20472;-73
2021/09/15 00:34:43;;;;;;;2.83;1.88;;;;;;;;;;5063979;28;20029;-73
2021/09/15 00:37:09;;;;;;;3.08;1.83;;;;;;;;;;5063109;28;20039;-73
2021/09/15 00:39:34;;;;;;;3.25;1.92;;;;;;;;;;5058540;28;20025;-73
2021/09/15 00:41:59;;;;;;;4.50;2.13;;;;;;;;;;5071227;28;20028;-73
2021/09/15 00:44:25;;;;;;;4.25;2.25;;;;;;;;;;5066729;28;20483;-73
2021/09/15 00:46:51;;;;;;;2.90;2.00;;;;;;;;;;5067056;28;20055;-73
2021/09/15 00:49:16;;;;;;;3.50;2.20;;;;;;;;;;5080207;28;20032;-73
2021/09/15 00:51:44;;;;;;;3.63;2.60;;;;;;;;;;5075843;28;20032;-73
2021/09/15 00:54:11;;;;;;;3.22;1.95;;;;;;;;;;5074495;28;20039;-73
2021/09/15 00:56:37;;;;;;;4.13;2.22;;;;;;;;;;5071358;28;20042;-73
2021/09/15 00:59:05;;;;;;;2.97;1.92;;;;;;;;;;5050440;28;20124;-73
2021/09/15 01:01:30;;;;;;;3.33;1.90;;;;;;;;;;5072031;28;20031;-73
2021/09/15 01:03:56;;;;;;;2.60;1.77;;;;;;;;;;5073855;28;20375;-73
2021/09/15 01:06:22;;;;;;;3.33;2.00;;;;;;;;;;5078530;28;20442;-73
2021/09/15 01:08:48;;;;;;;5.30;2.25;;;;;;;;;;5058595;28;20028;-73
2021/09/15 01:11:15;;;;;;;3.92;1.90;;;;;;;;;;5060283;28;20442;-73
2021/09/15 01:13:41;;;;;;;2.92;1.88;;;;;;;;;;5071899;28;20020;-73
2021/09/15 01:16:09;;;;;;;3.53;2.22;;;;;;;;;;5069371;28;20492;-73
2021/09/15 01:18:35;;;;;;;3.10;2.10;;;;;;;;;;5066329;28;20035;-73
2021/09/15 01:21:01;;;;;;;3.22;1.65;;;;;;;;;;5061385;28;20024;-73
2021/09/15 01:23:27;;;;;;;3.15;2.17;;;;;;;;;;5075122;28;20027;-73
2021/09/15 01:25:53;;;;;;;2.97;1.80;;;;;;;;;;5052688;28;20460;-73
2021/09/15 01:28:18;;;;;;;3.45;2.20;;;;;;;;;;5072057;28;20036;-73
2021/09/15 01:30:45;;;;;;;3.22;1.98;;;;;;;;;;5077331;28;20471;-73
2021/09/15 01:33:12;;;;;;;3.25;1.85;;;;;;;;;;5047728;28;20404;-73
2021/09/15 01:35:38;;;;;;;3.03;1.73;;;;;;;;;;5068280;28;20020;-73
2021/09/15 01:38:04;;;;;;;3.22;2.05;;;;;;;;;;5060490;28;20024;-73
2021/09/15 01:40:29;;;;;;;3.10;1.88;;;;;;;;;;5063154;28;20044;-73
2021/09/15 01:42:54;;;;;;;3.25;1.90;;;;;;;;;;5062844;28;20047;-73
2021/09/15 01:45:20;;;;;;;3.28;1.92;;;;;;;;;;5076700;28;20380;-73
2021/09/15 01:47:45;;;;;;;2.78;2.03;;;;;;;;;;5067650;28;20020;-73
2021/09/15 01:50:11;;;;;;;4.22;2.00;;;;;;;;;;5075524;28;20031;-73
2021/09/15 01:52:38;;;;;;;2.75;1.88;;;;;;;;;;5069160;28;20544;-73
2021/09/15 01:55:04;;;;;;;2.53;1.60;;;;;;;;;;5070789;28;20020;-73
2021/09/15 01:57:30;;;;;;;2.80;1.90;;;;;;;;;;5073854;28;20373;-73
2021/09/15 01:59:57;;;;;;;3.85;2.13;;;;;;;;;;5069928;28;20120;-73
2021/09/15 02:02:23;;;;;;;2.92;1.67;;;;;;;;;;5072298;28;20051;-73
2021/09/15 02:04:48;;;;;;;2.50;1.73;;;;;;;;;;5059138;28;20103;-73
2021/09/15 02:07:14;;;;;;;2.35;1.60;;;;;;;;;;5061619;28;20467;-73
2021/09/15 02:09:39;;;;;;;3.10;1.65;;;;;;;;;;5071440;28;20039;-73
2021/09/15 02:12:05;;;;;;;3.22;1.92;;;;;;;;;;5076415;28;20107;-73
2021/09/15 02:14:31;;;;;;;5.82;1.80;;;;;;;;;;5061023;28;20118;-73
2021/09/15 02:16:56;;;;;;;3.15;2.20;;;;;;;;;;5069560;28;20028;-73
2021/09/15 02:19:22;;;;;;;2.47;1.85;;;;;;;;;;5090415;28;20110;-73
2021/09/15 02:21:48;;;;;;;3.00;2.00;;;;;;;;;;5072388;28;20028;-73
2021/09/15 02:24:13;;;;;;;3.97;1.80;;;;;;;;;;5070216;28;20492;-73
2021/09/15 02:26:39;;;;;;;2.35;1.73;;;;;;;;;;5075670;28;20020;-73
2021/09/15 02:29:04;;;;;;;2.97;2.10;;;;;;;;;;5074273;28;20071;-73
2021/09/15 02:31:32;;;;;;;3.50;2.10;;;;;;;;;;5078710;28;20023;-73
2021/09/15 02:33:57;;;;;;;2.83;1.80;;;;;;;;;;5072766;28;20033;-73
2021/09/15 02:36:24;;;;;;;3.05;1.98;;;;;;;;;;5066777;28;20107;-73
2021/09/15 02:38:50;;;;;;;2.47;1.73;;;;;;;;;;5074422;28;20029;-73
2021/09/15 02:41:15;;;;;;;2.78;1.77;;;;;;;;;;5055582;28;20108;-73
2021/09/15 02:43:41;;;;;;;5.03;2.10;;;;;;;;;;5065679;28;20428;-73
2021/09/15 02:46:07;;;;;;;2.60;1.70;;;;;;;;;;5064501;28;20581;-73
2021/09/15 02:48:32;;;;;;;2.55;1.80;;;;;;;;;;5069568;28;20099;-73
2021/09/15 02:50:58;;;;;;;2.88;1.90;;;;;;;;;;5071667;28;20074;-73
2021/09/15 02:53:23;;;;;;;3.42;1.90;;;;;;;;;;5067347;28;20037;-73
2021/09/15 02:55:49;;;;;;;2.33;1.73;;;;;;;;;;5073153;28;20051;-73
2021/09/15 02:58:14;;;;;;;2.72;2.05;;;;;;;;;;5060911;28;20041;-73
2021/09/15 03:00:40;;;;;;;3.42;2.08;;;;;;;;;;5067481;28;20118;-73
2021/09/15 03:03:05;;;;;;;3.03;1.60;;;;;;;;;;5063292;28;20025;-73
2021/09/15 03:05:32;;;;;;;4.50;1.90;;;;;;;;;;5048748;28;20078;-73
2021/09/15 03:07:59;;;;;;;3.47;1.90;;;;;;;;;;5056350;28;20089;-73
2021/09/15 03:10:26;;;;;;;3.63;1.83;;;;;;;;;;5066173;28;20091;-73
2021/09/15 03:12:52;;;;;;;3.92;2.20;;;;;;;;;;5071075;28;20041;-73
2021/09/15 03:15:18;;;;;;;2.90;1.90;;;;;;;;;;5051722;28;20096;-73
2021/09/15 03:17:43;;;;;;;4.82;1.83;;;;;;;;;;5057008;28;20204;-73
2021/09/15 03:20:09;;;;;;;3.70;1.95;;;;;;;;;;5073068;28;20383;-73
2021/09/15 03:22:35;;;;;;;2.55;1.80;;;;;;;;;;5077528;28;20115;-73
2021/09/15 03:25:00;;;;;;;4.28;2.10;;;;;;;;;;5071968;28;20059;-73
2021/09/15 03:27:26;;;;;;;2.88;1.90;;;;;;;;;;5070412;28;20116;-73
2021/09/15 03:29:52;;;;;;;2.50;1.80;;;;;;;;;;5068830;28;20024;-73
2021/09/15 03:32:17;;;;;;;3.92;2.03;;;;;;;;;;5075636;28;20028;-73
2021/09/15 03:34:43;;;;;;;3.33;1.92;;;;;;;;;;5068832;28;20028;-73
2021/09/15 03:37:08;;;;;;;4.35;1.80;;;;;;;;;;5064525;28;20624;-73
2021/09/15 03:39:34;;;;;;;3.83;1.73;;;;;;;;;;5059575;28;20036;-73
2021/09/15 03:42:00;;;;;;;2.92;1.60;;;;;;;;;;5064386;28;20583;-73
2021/09/15 03:44:27;;;;;;;2.95;1.80;;;;;;;;;;5057840;28;20024;-73
2021/09/15 03:46:53;;;;;;;2.60;1.70;;;;;;;;;;5061323;28;20032;-73
2021/09/15 03:49:19;;;;;;;3.97;1.95;;;;;;;;;;5050770;28;20059;-73
2021/09/15 03:51:44;;;;;;;2.60;1.55;;;;;;;;;;5052259;28;20025;-73
2021/09/15 03:54:10;;;;;;;2.90;2.00;;;;;;;;;;5068125;28;20021;-73
2021/09/15 03:56:35;;;;;;;3.58;1.73;;;;;;;;;;5054366;28;20028;-73
2021/09/15 03:59:02;;;;;;;2.95;1.67;;;;;;;;;;5082437;28;20077;-73
2021/09/15 04:01:28;;;;;;;1.95;1.40;;;;;;;;;;5066383;28;20036;-73
2021/09/15 04:03:53;;;;;;;2.45;1.60;;;;;;;;;;5058786;28;20032;-73
2021/09/15 04:06:18;;;;;;;3.17;1.80;;;;;;;;;;5061904;28;20053;-73
2021/09/15 04:08:44;;;;;;;3.65;2.05;;;;;;;;;;5058470;28;20375;-73
2021/09/15 04:11:09;;;;;;;2.72;1.80;;;;;;;;;;5083624;28;20048;-72
2021/09/15 04:13:35;;;;;;;2.30;1.50;;;;;;;;;;5060118;28;20079;-72
2021/09/15 04:16:00;;;;;;;3.25;1.90;;;;;;;;;;5033048;28;20025;-72
2021/09/15 04:18:26;;;;;;;2.38;1.60;;;;;;;;;;5051986;28;20027;-72
2021/09/15 04:20:51;;;;;;;2.78;1.58;;;;;;;;;;5065399;28;20021;-72
2021/09/15 04:23:28;;;;;;;3.80;1.75;;;;;;;;;;5070069;28;20052;-72
2021/09/15 04:31:25;;;;;;;5.32;1.98;;;;;;;;;;5052071;28;20375;-72
2021/09/15 04:33:53;;;;;;;5.28;2.22;;;;;;;;;;5063449;28;20021;-72
2021/09/15 04:36:19;;;;;;;3.58;2.00;;;;;;;;;;5055848;28;20029;-72
2021/09/15 04:38:45;;;;;;;4.28;1.92;;;;;;;;;;5061632;28;20032;-72
2021/09/15 04:41:12;;;;;;;4.30;2.38;;;;;;;;;;5050090;28;20024;-73
2021/09/15 04:43:37;;;;;;;4.68;2.28;;;;;;;;;;5064331;28;20082;-72
2021/09/15 04:46:03;;;;;;;3.22;1.90;;;;;;;;;;5066989;28;20020;-72
2021/09/15 04:48:28;;;;;;;4.10;1.85;;;;;;;;;;5069078;28;20021;-72
2021/09/15 04:50:53;;;;;;;5.97;2.13;;;;;;;;;;5060545;28;20033;-72
2021/09/15 04:53:20;;;;;;;4.07;2.22;;;;;;;;;;5053279;28;20408;-72
2021/09/15 04:55:45;;;;;;;4.32;2.40;;;;;;;;;;5052710;28;20049;-72
2021/09/15 04:58:11;;;;;;;4.40;2.60;;;;;;;;;;5056905;28;20055;-72
2021/09/15 05:00:37;;;;;;;5.47;2.33;;;;;;;;;;5062936;28;20068;-72
2021/09/15 05:03:02;;;;;;;6.65;2.38;;;;;;;;;;5056005;28;20083;-72
2021/09/15 05:05:28;;;;;;;7.05;2.45;;;;;;;;;;5062282;28;20147;-72
2021/09/15 05:07:53;;;;;;;14.98;3.30;;;;;;;;;;5064603;28;20032;-72
2021/09/15 05:10:24;;;;;;;4.13;2.20;;;;;;;;;;5068110;28;20039;-72
2021/09/15 05:12:53;;;;;;;5.57;2.75;;;;;;;;;;5071956;28;20479;-72
2021/09/15 05:15:19;;;;;;;4.72;2.75;;;;;;;;;;5064528;28;20536;-72
2021/09/15 05:17:45;;;;;;;5.10;2.97;;;;;;;;;;5067552;28;20056;-72
2021/09/15 05:20:12;;;;;;;5.15;2.90;;;;;;;;;;5051476;28;20056;-72
2021/09/15 05:22:38;;;;;;;5.93;3.00;;;;;;;;;;5087886;28;20373;-73
2021/09/15 05:25:04;;;;;;;6.43;3.10;;;;;;;;;;5068238;28;20031;-73
2021/09/15 05:27:30;;;;;;;6.25;3.35;;;;;;;;;;5073623;28;20543;-73
2021/09/15 05:29:55;;;;;;;5.80;2.70;;;;;;;;;;5061727;28;20024;-73
2021/09/15 05:32:21;;;;;;;6.22;3.28;;;;;;;;;;5087037;28;20027;-73
2021/09/15 05:34:47;;;;;;;6.18;2.88;;;;;;;;;;5084198;28;20031;-74
2021/09/15 05:37:13;;;;;;;5.50;3.15;;;;;;;;;;5079068;28;20390;-73
2021/09/15 05:39:38;;;;;;;4.95;2.55;;;;;;;;;;5078038;28;20028;-73
2021/09/15 05:42:04;;;;;;;5.63;3.13;;;;;;;;;;5074326;28;20094;-73
2021/09/15 05:44:30;;;;;;;7.22;3.30;;;;;;;;;;5076755;28;20079;-74
2021/09/15 05:46:55;;;;;;;7.20;3.45;;;;;;;;;;5072008;28;20012;-73
2021/09/15 05:49:21;;;;;;;5.82;3.42;;;;;;;;;;5063052;28;20455;-73
2021/09/15 05:51:46;;;;;;;5.35;3.42;;;;;;;;;;5060272;28;20032;-74
2021/09/15 05:54:12;;;;;;;7.97;3.80;;;;;;;;;;5067320;28;20155;-73
2021/09/15 05:56:38;;;;;;;7.70;3.47;;;;;;;;;;5066986;28;20095;-73
2021/09/15 05:59:04;;;;;;;6.05;3.92;;;;;;;;;;5072995;28;20412;-74
2021/09/15 06:01:30;;;;;;;6.22;4.00;;;;;;;;;;5058703;28;20033;-74
2021/09/15 06:03:55;;;;;;;7.95;3.90;;;;;;;;;;5071762;28;20024;-74
2021/09/15 06:06:20;;;;;;;7.35;4.32;;;;;;;;;;5066019;28;20021;-74
2021/09/15 06:08:46;;;;;;;6.05;3.70;;;;;;;;;;5071823;28;20021;-74
2021/09/15 06:11:11;;;;;;;6.55;4.28;;;;;;;;;;5071912;28;20024;-74
2021/09/15 06:13:37;;;;;;;8.60;4.35;;;;;;;;;;5065196;28;20024;-74
2021/09/15 06:16:06;;;;;;;6.60;4.30;;;;;;;;;;5073747;28;20100;-74
2021/09/15 06:18:32;;;;;;;6.40;4.30;;;;;;;;;;5072468;28;20485;-74
2021/09/15 06:20:59;;;;;;;7.82;4.35;;;;;;;;;;5076249;28;20066;-74
2021/09/15 06:23:24;;;;;;;6.88;4.18;;;;;;;;;;5077202;28;20025;-74
2021/09/15 06:25:50;;;;;;;9.70;5.03;;;;;;;;;;5075035;28;20031;-74
2021/09/15 06:28:15;;;;;;;8.32;4.47;;;;;;;;;;5071440;28;20037;-74
2021/09/15 06:30:41;;;;;;;7.78;4.40;;;;;;;;;;5069828;28;20375;-74
2021/09/15 06:33:08;;;;;;;7.90;4.30;;;;;;;;;;5064827;28;20024;-74
2021/09/15 06:35:33;;;;;;;6.25;3.80;;;;;;;;;;5078932;28;20020;-74
2021/09/15 06:37:59;;;;;;;7.05;4.18;;;;;;;;;;5071933;28;20082;-74
2021/09/15 06:40:24;;;;;;;8.68;4.50;;;;;;;;;;5058231;28;20103;-74
2021/09/15 06:42:50;;;;;;;10.27;4.70;;;;;;;;;;5064931;28;20107;-74
2021/09/15 06:45:16;;;;;;;9.77;4.40;;;;;;;;;;5072042;28;20052;-74
2021/09/15 06:47:43;;;;;;;10.85;4.45;;;;;;;;;;5084195;28;20029;-74
2021/09/15 06:50:12;;;;;;;8.90;4.35;;;;;;;;;;5079866;28;20123;-74
2021/09/15 06:52:37;;;;;;;6.50;3.47;;;;;;;;;;5071841;28;20078;-74
2021/09/15 06:55:05;;;;;;;5.97;2.90;;;;;;;;;;5086141;28;20091;-73
2021/09/15 06:57:30;;;;;;;3.90;2.70;;;;;;;;;;5068026;28;20037;-73
2021/09/15 06:59:56;;;;;;;4.78;3.20;;;;;;;;;;5061668;28;20123;-73
2021/09/15 07:02:21;;;;;;;4.32;2.30;;;;;;;;;;5074173;28;20464;-75
2021/09/15 07:04:47;;;;;;;6.30;2.10;;;;;;;;;;5079377;28;20028;-74
2021/09/15 07:07:12;;;;;;;6.07;1.80;;;;;;;;;;5081672;28;20024;-77
2021/09/15 07:09:38;;;;;;;1.80;1.20;;;;;;;;;;5082459;28;20103;-75
2021/09/15 07:12:04;;;;;;;1.50;1.23;;;;;;;;;;5086277;28;20024;-75
2021/09/15 07:14:29;;;;;;;2.33;1.20;;;;;;;;;;5073866;28;20046;-74
2021/09/15 07:16:55;;;;;;;1.52;1.05;;;;;;;;;;5074150;28;20028;-75
2021/09/15 07:19:20;;;;;;;2.15;1.10;;;;;;;;;;5074377;28;20028;-74
2021/09/15 07:21:46;;;;;;;1.95;1.30;;;;;;;;;;5074761;28;20035;-74
2021/09/15 07:24:11;;;;;;;1.70;1.25;;;;;;;;;;5071071;28;20016;-74
2021/09/15 07:26:36;;;;;;;3.58;1.42;;;;;;;;;;5068858;28;20033;-74
2021/09/15 07:29:02;;;;;;;2.38;1.10;;;;;;;;;;5071410;28;20095;-74
2021/09/15 07:31:28;;;;;;;3.10;1.55;;;;;;;;;;5080458;28;20036;-75
2021/09/15 07:33:54;;;;;;;1.83;1.00;;;;;;;;;;5075235;28;20120;-76
2021/09/15 07:36:19;;;;;;;3.75;1.10;;;;;;;;;;5078050;28;20083;-75
2021/09/15 07:38:45;;;;;;;1.50;0.90;;;;;;;;;;5078649;28;20090;-75
2021/09/15 07:41:10;;;;;;;3.55;0.70;;;;;;;;;;5078704;28;20042;-76
2021/09/15 07:43:36;;;;;;;1.45;0.90;;;;;;;;;;5070592;28;20109;-74
2021/09/15 07:46:01;;;;;;;2.00;0.88;;;;;;;;;;5075485;28;20446;-75
2021/09/15 07:48:27;;;;;;;0.70;0.70;;;;;;;;;;5083596;28;20036;-75
2021/09/15 07:50:53;;;;;;;1.00;0.80;;;;;;;;;;5083828;28;20023;-77
2021/09/15 07:53:19;;;;;;;0.98;0.57;;;;;;;;;;5083750;28;20088;-75
2021/09/15 07:55:45;;;;;;;6.13;0.98;;;;;;;;;;5076258;28;20043;-75
2021/09/15 07:58:10;;;;;;;2.03;0.60;;;;;;;;;;5064750;28;20021;-77
2021/09/15 08:00:36;;;;;;;1.50;0.60;;;;;;;;;;5075719;28;20055;-77
2021/09/15 08:03:01;;;;;;;0.70;0.60;;;;;;;;;;5080516;28;20028;-76
2021/09/15 08:05:27;;;;;;;0.57;0.50;;;;;;;;;;5070813;28;20027;-77
2021/09/15 08:07:53;;;;;;;0.63;0.45;;;;;;;;;;5052796;28;20023;-78
2021/09/15 08:10:18;;;;;;;1.25;0.40;;;;;;;;;;5070246;28;20052;-77
2021/09/15 08:12:43;;;;;;;1.92;0.55;;;;;;;;;;5070993;28;20044;-75
2021/09/15 08:15:09;;;;;;;0.40;0.40;;;;;;;;;;5071800;28;20524;-72
2021/09/15 08:17:35;;;;;;;1.05;0.43;;;;;;;;;;5073310;28;20122;-72
2021/09/15 08:20:01;;;;;;;1.33;0.50;;;;;;;;;;5071215;28;20020;-72
2021/09/15 08:22:26;;;;;;;1.10;0.50;;;;;;;;;;5069182;28;20032;-72
2021/09/15 08:24:52;;;;;;;0.60;0.43;;;;;;;;;;5069903;28;20024;-73
2021/09/15 08:27:17;;;;;;;0.60;0.50;;;;;;;;;;5071034;28;20032;-74
2021/09/15 08:29:42;;;;;;;0.40;0.40;;;;;;;;;;5069606;28;20402;-74
2021/09/15 08:32:08;;;;;;;0.50;0.30;;;;;;;;;;5071467;28;20028;-74
2021/09/15 08:34:34;;;;;;;0.75;0.40;;;;;;;;;;5069975;28;20087;-73
2021/09/15 08:37:00;;;;;;;0.73;0.50;;;;;;;;;;5076566;28;20024;-74
2021/09/15 08:39:26;;;;;;;1.02;0.50;;;;;;;;;;5075406;28;20028;-77
2021/09/15 08:41:52;;;;;;;1.02;0.40;;;;;;;;;;5069306;28;20387;-75
2021/09/15 08:44:20;;;;;;;0.85;0.50;;;;;;;;;;5076244;28;20028;-76
2021/09/15 08:46:46;;;;;;;1.17;0.60;;;;;;;;;;5077485;28;20071;-76
2021/09/15 08:49:16;;;;;;;2.10;0.40;;;;;;;;;;5080098;28;20033;-75
2021/09/15 08:51:42;;;;;;;0.45;0.40;;;;;;;;;;5070298;28;20055;-75
2021/09/15 08:54:11;;;;;;;0.95;0.50;;;;;;;;;;5082062;28;20063;-75
2021/09/15 08:56:37;;;;;;;2.65;0.47;;;;;;;;;;5070684;28;20063;-74
2021/09/15 08:59:03;;;;;;;1.88;0.60;;;;;;;;;;5073115;28;20451;-74
2021/09/15 09:01:28;;;;;;;0.68;0.60;;;;;;;;;;5073579;28;20032;-75
2021/09/15 09:03:56;;;;;;;0.45;0.43;;;;;;;;;;5088619;28;20663;-76
2021/09/15 09:06:28;;;;;;;0.88;0.50;;;;;;;;;;5079909;28;20574;-77
2021/09/15 09:08:56;;;;;;;1.13;0.40;;;;;;;;;;5077551;28;20047;-75
2021/09/15 09:11:25;;;;;;;1.00;0.55;;;;;;;;;;5077562;28;20020;-76
2021/09/15 09:13:55;;;;;;;0.82;0.40;;;;;;;;;;5073247;28;20104;-77
2021/09/15 09:16:47;;;;;;;2.08;1.05;;;;;;;;;;5075753;28;20028;-76
2021/09/15 09:19:16;;;;;;;1.98;0.50;;;;;;;;;;5075424;28;20027;-75
2021/09/15 09:21:51;;;;;;;1.15;0.70;;;;;;;;;;5074970;28;20036;-74
2021/09/15 09:24:24;;;;;;;0.50;0.43;;;;;;;;;;5073396;28;20427;-76
2021/09/15 09:26:52;;;;;;;;;;;;;;;;;;5076956;28;20028;-78
2021/09/15 09:29:22;;;;;;;0.70;0.45;;;;;;;;;;5074011;28;19913;-76
2021/09/15 09:32:08;;;;;;;1.08;0.73;;;;;;;;;;5073499;28;20028;-78
2021/09/15 09:34:47;;;;;;;2.88;0.70;;;;;;;;;;5073475;28;20035;-77
2021/09/15 09:37:19;;;;;;;0.90;0.50;;;;;;;;;;5080524;28;20025;-79
2021/09/15 09:39:50;;;;;;;0.63;0.40;;;;;;;;;;5080081;28;20570;-77
2021/09/15 09:42:22;;;;;;;0.77;0.50;;;;;;;;;;5062522;28;20089;-76
2021/09/15 09:45:12;;;;;;;2.10;0.60;;;;;;;;;;5080836;28;20085;-76
2021/09/15 09:47:38;;;;;;;1.85;0.75;;;;;;;;;;5064945;28;20124;-74
2021/09/15 09:50:05;;;;;;;1.60;0.70;;;;;;;;;;5084178;28;20045;-76
2021/09/15 09:52:31;;;;;;;1.50;0.57;;;;;;;;;;5070360;28;20031;-77
2021/09/15 09:55:00;;;;;;;0.98;0.65;;;;;;;;;;5081868;28;20034;-77
2021/09/15 09:57:29;;;;;;;1.50;0.60;;;;;;;;;;5072921;28;20070;-76
2021/09/15 09:59:55;;;;;;;2.70;0.65;;;;;;;;;;5053200;28;20099;-77
2021/09/15 10:02:21;;;;;;;0.85;0.52;;;;;;;;;;5074094;28;20032;-79
2021/09/15 10:04:47;;;;;;;3.85;0.63;;;;;;;;;;5070953;28;20483;-76
2021/09/15 10:07:15;;;;;;;1.27;0.60;;;;;;;;;;5065627;28;20033;-77
2021/09/15 10:09:42;;;;;;;3.08;0.65;;;;;;;;;;5077564;28;20025;-75
2021/09/15 10:12:08;;;;;;;0.88;0.50;;;;;;;;;;5076301;28;20501;-76
2021/09/15 10:14:34;;;;;;;0.85;0.60;;;;;;;;;;5072471;28;20048;-77
2021/09/15 10:17:15;;;;;;;1.02;0.60;;;;;;;;;;5060934;28;20035;-77
2021/09/15 10:19:46;;;;;;;1.25;0.60;;;;;;;;;;5075244;28;20556;-76
2021/09/15 10:22:12;;;;;;;1.52;0.65;;;;;;;;;;5070265;28;20020;-77
2021/09/15 10:24:58;;;;;;;0.60;0.50;;;;;;;;;;5075059;28;20028;-76
2021/09/15 10:27:29;;;;;;;0.60;0.60;;;;;;;;;;5071352;28;20048;-77
2021/09/15 10:30:00;;;;;;;1.05;0.70;;;;;;;;;;5063444;28;20040;-77
2021/09/15 10:32:34;;;;;;;0.75;0.60;;;;;;;;;;5077226;28;20031;-77
2021/09/15 10:35:01;;;;;;;;;;;;;;;;;;5076914;28;20671;-76
2021/09/15 10:37:26;;;;;;;0.85;0.50;;;;;;;;;;5075344;28;19959;-79
2021/09/15 10:39:57;;;;;;;0.80;0.60;;;;;;;;;;5074840;28;20070;-77
2021/09/15 10:42:53;;;;;;;1.10;0.73;;;;;;;;;;5077402;28;20060;-79
2021/09/15 10:45:25;;;;;;;2.97;0.70;;;;;;;;;;5052391;28;20082;-77
2021/09/15 10:47:59;;;;;;;2.45;0.70;;;;;;;;;;5075664;28;20480;-75
2021/09/15 10:50:27;;;;;;;0.95;0.68;;;;;;;;;;5080968;28;20098;-76
2021/09/15 10:53:12;;;;;;;0.88;0.60;;;;;;;;;;5084676;28;20024;-75
2021/09/15 10:55:38;;;;;;;3.13;0.60;;;;;;;;;;5073971;28;20471;-77
2021/09/15 10:58:14;;;;;;;0.98;0.65;;;;;;;;;;5075060;28;20032;-75
2021/09/15 11:01:07;;;;;;;1.17;0.57;;;;;;;;;;5076650;28;20052;-78
2021/09/15 11:03:36;;;;;;;2.37;0.80;;;;;;;;;;5071165;28;20040;-77
2021/09/15 11:06:12;;;;;;;1.17;0.68;;;;;;;;;;5072036;28;20281;-78
2021/09/15 11:08:47;;;;;;;2.92;0.73;;;;;;;;;;5073344;28;20020;-76
2021/09/15 11:11:21;;;;;;;1.90;0.80;;;;;;;;;;5073000;28;20032;-76
2021/09/15 11:13:51;;;;;;;1.58;0.80;;;;;;;;;;5080001;28;20070;-77
2021/09/15 11:16:27;;;;;;;2.15;0.80;;;;;;;;;;5076703;28;20032;-77
2021/09/15 11:18:57;;;;;;;2.60;0.70;;;;;;;;;;5073484;28;20036;-76
2021/09/15 11:21:23;;;;;;;0.52;0.52;;;;;;;;;;5082071;28;20033;-76
2021/09/15 11:23:56;;;;;;;2.00;0.60;;;;;;;;;;5072022;28;20039;-75
2021/09/15 11:26:35;;;;;;;4.47;0.80;;;;;;;;;;5068626;28;20025;-76
2021/09/15 11:29:02;;;;;;;1.63;0.75;;;;;;;;;;5052231;28;20096;-77
2021/09/15 11:31:32;;;;;;;0.80;0.70;;;;;;;;;;5069528;28;20047;-76
2021/09/15 11:34:04;;;;;;;2.85;0.75;;;;;;;;;;5075890;28;20498;-75
2021/09/15 11:36:29;;;;;;;1.20;0.90;;;;;;;;;;5086312;28;20071;-76
2021/09/15 11:38:55;;;;;;;1.75;0.68;;;;;;;;;;5086194;28;20047;-76
2021/09/15 11:41:21;;;;;;;0.98;0.65;;;;;;;;;;5077170;28;20031;-75
2021/09/15 11:43:48;;;;;;;1.73;0.75;;;;;;;;;;5084028;28;20035;-77
2021/09/15 11:46:15;;;;;;;1.02;0.60;;;;;;;;;;5078028;28;20029;-76
2021/09/15 11:48:44;;;;;;;1.17;0.90;;;;;;;;;;5071427;28;20106;-76
2021/09/15 11:51:18;;;;;;;4.45;0.70;;;;;;;;;;5084126;28;20028;-77
2021/09/15 11:53:51;;;;;;;1.70;0.68;;;;;;;;;;5047314;28;20020;-76
2021/09/15 11:56:21;;;;;;;1.00;0.70;;;;;;;;;;5070961;28;20038;-77
2021/09/15 11:58:50;;;;;;;2.45;0.88;;;;;;;;;;5078509;28;20024;-75
2021/09/15 12:01:17;;;;;;;1.58;0.75;;;;;;;;;;5079606;28;20047;-77
2021/09/15 12:03:44;;;;;;;3.47;0.80;;;;;;;;;;5065881;28;20769;-78
2021/09/15 12:06:09;;;;;;;1.42;0.90;;;;;;;;;;5061006;28;20036;-76
2021/09/15 12:08:35;;;;;;;0.80;0.70;;;;;;;;;;5066346;28;20048;-75
2021/09/15 12:11:01;;;;;;;1.33;0.63;;;;;;;;;;5072455;28;20040;-74
2021/09/15 12:13:34;;;;;;;1.45;0.85;;;;;;;;;;5075391;28;20072;-76
2021/09/15 12:16:00;;;;;;;1.60;0.80;;;;;;;;;;5081626;28;20110;-76
2021/09/15 12:18:46;;;;;;;0.90;0.70;;;;;;;;;;5075765;28;20059;-74
2021/09/15 12:21:17;;;;;;;0.90;0.70;;;;;;;;;;5079150;28;20115;-77
2021/09/15 12:23:43;;;;;;;0.60;0.57;;;;;;;;;;5076306;28;20024;-75
2021/09/15 12:26:09;;;;;;;1.38;0.90;;;;;;;;;;5064029;28;20029;-75
2021/09/15 12:28:34;;;;;;;0.75;0.60;;;;;;;;;;5053312;28;20035;-75
2021/09/15 12:31:04;;;;;;;3.92;0.80;;;;;;;;;;5064354;28;20036;-75
2021/09/15 12:33:32;;;;;;;1.27;0.60;;;;;;;;;;5068656;28;20024;-76
2021/09/15 12:36:16;;;;;;;0.73;0.65;;;;;;;;;;5070285;28;20016;-74
2021/09/15 12:38:55;;;;;;;1.92;0.80;;;;;;;;;;5079565;28;20055;-75
2021/09/15 12:41:21;;;;;;;1.05;0.68;;;;;;;;;;5065414;28;20025;-74
2021/09/15 12:43:47;;;;;;;3.55;0.90;;;;;;;;;;5075081;28;20107;-74
2021/09/15 12:46:24;;;;;;;2.13;0.77;;;;;;;;;;5075445;28;20103;-75
2021/09/15 12:48:50;;;;;;;1.00;0.68;;;;;;;;;;5074079;28;20384;-75
2021/09/15 12:51:18;;;;;;;1.25;0.70;;;;;;;;;;5074024;28;20035;-75
2021/09/15 12:53:45;;;;;;;0.88;0.60;;;;;;;;;;5073919;28;20028;-75
2021/09/15 12:56:11;;;;;;;1.15;0.60;;;;;;;;;;5073935;28;20021;-74
2021/09/15 12:58:36;;;;;;;2.20;0.75;;;;;;;;;;5066481;28;20062;-74
2021/09/15 13:01:05;;;;;;;1.40;0.70;;;;;;;;;;5075441;28;20052;-74
2021/09/15 13:03:41;;;;;;;2.20;0.70;;;;;;;;;;5074576;28;20032;-73
2021/09/15 13:06:06;;;;;;;0.80;0.63;;;;;;;;;;5074837;28;20016;-73
2021/09/15 13:08:34;;;;;;;2.35;0.70;;;;;;;;;;5073775;28;20043;-73
2021/09/15 13:11:00;;;;;;;2.40;0.88;;;;;;;;;;5078143;28;20360;-73
2021/09/15 13:13:30;;;;;;;3.90;0.57;;;;;;;;;;5073352;28;20025;-73
2021/09/15 13:15:57;;;;;;;1.35;0.70;;;;;;;;;;5072742;28;20108;-74
2021/09/15 13:18:23;;;;;;;2.45;0.60;;;;;;;;;;5058662;28;20500;-74
2021/09/15 13:20:49;;;;;;;0.82;0.60;;;;;;;;;;5075983;28;20388;-74
2021/09/15 13:23:17;;;;;;;1.38;0.70;;;;;;;;;;5079853;28;20058;-75
2021/09/15 13:25:42;;;;;;;0.80;0.65;;;;;;;;;;5075399;28;20064;-75
2021/09/15 13:28:08;;;;;;;1.15;0.73;;;;;;;;;;5075637;28;20059;-75
2021/09/15 13:30:34;;;;;;;1.17;0.70;;;;;;;;;;5067366;28;20028;-75
2021/09/15 13:32:59;;;;;;;1.10;0.60;;;;;;;;;;5078707;28;20029;-76
2021/09/15 13:35:26;;;;;;;1.17;0.70;;;;;;;;;;5074246;28;20026;-76
2021/09/15 13:37:52;;;;;;;0.70;0.70;;;;;;;;;;5075146;28;20028;-74
2021/09/15 13:40:18;;;;;;;0.80;0.60;;;;;;;;;;5076281;28;20036;-76
2021/09/15 13:42:43;;;;;;;1.52;0.80;;;;;;;;;;5077621;28;20091;-76
2021/09/15 13:45:11;;;;;;;2.83;0.60;;;;;;;;;;5078247;28;20036;-77
2021/09/15 13:47:43;;;;;;;1.10;0.88;;;;;;;;;;5082699;28;20028;-74
2021/09/15 13:50:21;;;;;;;0.85;0.73;;;;;;;;;;5061502;28;20089;-73
2021/09/15 13:52:48;;;;;;;1.52;0.70;;;;;;;;;;5076458;28;20028;-76
2021/09/15 13:55:14;;;;;;;2.83;0.85;;;;;;;;;;5076240;28;20093;-77
2021/09/15 13:57:39;;;;;;;1.13;0.70;;;;;;;;;;5077884;28;20028;-77
2021/09/15 14:00:08;;;;;;;0.75;0.60;;;;;;;;;;5082046;28;20048;-75
2021/09/15 14:02:35;;;;;;;1.30;0.80;;;;;;;;;;5084203;28;20081;-75
2021/09/15 14:05:03;;;;;;;1.67;0.77;;;;;;;;;;5071555;28;20040;-74
2021/09/15 14:07:32;;;;;;;1.85;0.80;;;;;;;;;;5079517;28;20491;-75
2021/09/15 14:09:57;;;;;;;3.05;0.73;;;;;;;;;;5085985;28;20108;-74
2021/09/15 14:12:23;;;;;;;0.60;0.60;;;;;;;;;;5083562;28;20151;-75
2021/09/15 14:14:49;;;;;;;1.90;0.80;;;;;;;;;;5078585;28;20046;-72
2021/09/15 14:17:15;;;;;;;1.02;0.70;;;;;;;;;;5079058;28;20028;-73
2021/09/15 14:19:41;;;;;;;2.45;0.68;;;;;;;;;;5085065;28;20024;-74
2021/09/15 14:22:07;;;;;;;3.08;0.80;;;;;;;;;;5084554;28;20077;-75
2021/09/15 14:24:33;;;;;;;3.20;0.77;;;;;;;;;;5077220;28;20021;-73
2021/09/15 14:26:59;;;;;;;2.70;0.80;;;;;;;;;;5070932;28;20039;-75
2021/09/15 14:29:25;;;;;;;1.17;0.70;;;;;;;;;;5070203;28;20504;-73
2021/09/15 14:31:50;;;;;;;3.85;0.80;;;;;;;;;;5078529;28;20039;-76
2021/09/15 14:34:16;;;;;;;2.42;0.80;;;;;;;;;;5076078;28;20384;-72
2021/09/15 14:36:43;;;;;;;1.08;0.60;;;;;;;;;;5076128;28;20033;-73
2021/09/15 14:39:08;;;;;;;1.58;0.70;;;;;;;;;;5073277;28;20029;-74
2021/09/15 14:41:36;;;;;;;1.58;0.70;;;;;;;;;;5076264;28;20035;-76
2021/09/15 14:44:02;;;;;;;0.68;0.60;;;;;;;;;;5074620;28;20043;-76
2021/09/15 14:46:27;;;;;;;1.80;0.80;;;;;;;;;;5076390;28;20032;-77
2021/09/15 14:48:53;;;;;;;0.60;0.55;;;;;;;;;;5077587;28;20043;-74